sensor_id;sensor_type;location;lat;lon;timestamp;P1;durP1;ratioP1;P2;durP2;ratioP2
12567;SDS011;6349;50.904;6.136;2023-11-21T00:00:04;9.80;;;8.80;;
12567;SDS011;6349;50.904;6.136;2023-11-21T00:02:12;8.93;;;8.03;;
12567;SDS011;6349;50.904;6.136;2023-11-21T00:04:13;9.83;;;8.13;;
12567;SDS011;6349;50.904;6.136;2023-11-21T00:06:15;9.90;;;8.90;;
12567;SDS011;6349;50.904;6.136;2023-11-21T00:08:16;9.93;;;8.93;;
12567;SDS011;6349;50.904;6.136;2023-11-21T00:10:16;9.43;;;8.50;;
12567;SDS011;6349;50.904;6.136;2023-11-21T00:12:17;9.87;;;8.70;;
12567;SDS011;6349;50.904;6.136;2023-11-21T00:14:17;8.73;;;7.93;;
12567;SDS011;6349;50.904;6.136;2023-11-21T00:16:18;10.00;;;8.37;;
12567;SDS011;6349;50.904;6.136;2023-11-21T00:18:18;10.23;;;9.20;;
12567;SDS011;6349;50.904;6.136;2023-11-21T00:20:19;9.10;;;8.20;;
12567;SDS011;6349;50.904;6.136;2023-11-21T00:22:20;9.90;;;8.57;;
12567;SDS011;6349;50.904;6.136;2023-11-21T00:24:21;9.73;;;8.20;;
12567;SDS011;6349;50.904;6.136;2023-11-21T00:26:21;8.77;;;7.67;;
12567;SDS011;6349;50.904;6.136;2023-11-21T00:28:22;8.50;;;7.67;;
12567;SDS011;6349;50.904;6.136;2023-11-21T00:30:22;8.00;;;7.30;;
12567;SDS011;6349;50.904;6.136;2023-11-21T00:32:23;8.10;;;7.23;;
12567;SDS011;6349;50.904;6.136;2023-11-21T00:34:24;7.70;;;7.00;;
12567;SDS011;6349;50.904;6.136;2023-11-21T00:36:24;7.90;;;7.20;;
12567;SDS011;6349;50.904;6.136;2023-11-21T00:38:26;8.00;;;7.20;;
12567;SDS011;6349;50.904;6.136;2023-11-21T00:40:27;8.17;;;7.37;;
12567;SDS011;6349;50.904;6.136;2023-11-21T00:42:27;7.90;;;7.17;;
12567;SDS011;6349;50.904;6.136;2023-11-21T00:44:28;7.10;;;6.50;;
12567;SDS011;6349;50.904;6.136;2023-11-21T00:46:28;6.97;;;6.37;;
12567;SDS011;6349;50.904;6.136;2023-11-21T00:48:29;7.03;;;6.33;;
12567;SDS011;6349;50.904;6.136;2023-11-21T00:50:30;7.13;;;6.43;;
12567;SDS011;6349;50.904;6.136;2023-11-21T00:52:30;7.30;;;6.67;;
12567;SDS011;6349;50.904;6.136;2023-11-21T00:54:31;7.47;;;6.53;;
12567;SDS011;6349;50.904;6.136;2023-11-21T00:56:31;7.93;;;7.00;;
12567;SDS011;6349;50.904;6.136;2023-11-21T00:58:32;7.23;;;6.53;;
12567;SDS011;6349;50.904;6.136;2023-11-21T01:00:33;8.27;;;6.93;;
12567;SDS011;6349;50.904;6.136;2023-11-21T01:02:34;8.30;;;7.40;;
12567;SDS011;6349;50.904;6.136;2023-11-21T01:04:35;8.10;;;7.37;;
12567;SDS011;6349;50.904;6.136;2023-11-21T01:06:36;9.20;;;8.13;;
12567;SDS011;6349;50.904;6.136;2023-11-21T01:08:37;9.07;;;8.17;;
12567;SDS011;6349;50.904;6.136;2023-11-21T01:10:37;8.90;;;8.00;;
12567;SDS011;6349;50.904;6.136;2023-11-21T01:12:38;9.80;;;8.80;;
12567;SDS011;6349;50.904;6.136;2023-11-21T01:14:39;9.10;;;7.90;;
12567;SDS011;6349;50.904;6.136;2023-11-21T01:16:40;9.33;;;8.33;;
12567;SDS011;6349;50.904;6.136;2023-11-21T01:18:40;9.57;;;7.40;;
12567;SDS011;6349;50.904;6.136;2023-11-21T01:20:41;8.20;;;7.40;;
12567;SDS011;6349;50.904;6.136;2023-11-21T01:22:41;9.90;;;7.83;;
12567;SDS011;6349;50.904;6.136;2023-11-21T01:24:43;8.40;;;7.07;;
12567;SDS011;6349;50.904;6.136;2023-11-21T01:26:43;8.27;;;7.47;;
12567;SDS011;6349;50.904;6.136;2023-11-21T01:28:46;7.93;;;7.23;;
12567;SDS011;6349;50.904;6.136;2023-11-21T01:30:49;8.47;;;7.67;;
12567;SDS011;6349;50.904;6.136;2023-11-21T01:32:49;8.80;;;7.13;;
12567;SDS011;6349;50.904;6.136;2023-11-21T01:34:50;13.63;;;7.97;;
12567;SDS011;6349;50.904;6.136;2023-11-21T01:36:51;7.87;;;7.07;;
12567;SDS011;6349;50.904;6.136;2023-11-21T01:38:51;8.27;;;7.43;;
12567;SDS011;6349;50.904;6.136;2023-11-21T01:40:52;8.33;;;7.40;;
12567;SDS011;6349;50.904;6.136;2023-11-21T01:42:53;8.93;;;8.03;;
12567;SDS011;6349;50.904;6.136;2023-11-21T01:44:53;8.77;;;7.47;;
12567;SDS011;6349;50.904;6.136;2023-11-21T01:46:54;8.40;;;7.43;;
12567;SDS011;6349;50.904;6.136;2023-11-21T01:48:57;8.37;;;7.53;;
12567;SDS011;6349;50.904;6.136;2023-11-21T01:50:58;8.23;;;7.37;;
12567;SDS011;6349;50.904;6.136;2023-11-21T01:52:59;8.37;;;6.80;;
12567;SDS011;6349;50.904;6.136;2023-11-21T01:55:00;7.77;;;6.97;;
12567;SDS011;6349;50.904;6.136;2023-11-21T01:57:02;8.63;;;6.97;;
12567;SDS011;6349;50.904;6.136;2023-11-21T01:59:06;8.03;;;7.17;;
12567;SDS011;6349;50.904;6.136;2023-11-21T02:01:07;10.27;;;8.07;;
12567;SDS011;6349;50.904;6.136;2023-11-21T02:03:08;9.40;;;7.57;;
12567;SDS011;6349;50.904;6.136;2023-11-21T02:05:10;7.83;;;7.00;;
12567;SDS011;6349;50.904;6.136;2023-11-21T02:07:12;7.70;;;6.90;;
12567;SDS011;6349;50.904;6.136;2023-11-21T02:09:13;7.90;;;7.10;;
12567;SDS011;6349;50.904;6.136;2023-11-21T02:11:15;8.67;;;6.90;;
12567;SDS011;6349;50.904;6.136;2023-11-21T02:13:16;8.60;;;7.43;;
12567;SDS011;6349;50.904;6.136;2023-11-21T02:15:16;8.50;;;7.60;;
12567;SDS011;6349;50.904;6.136;2023-11-21T02:17:20;8.53;;;7.47;;
12567;SDS011;6349;50.904;6.136;2023-11-21T02:19:21;8.43;;;7.53;;
12567;SDS011;6349;50.904;6.136;2023-11-21T02:21:25;9.87;;;6.77;;
12567;SDS011;6349;50.904;6.136;2023-11-21T02:23:26;8.13;;;7.13;;
12567;SDS011;6349;50.904;6.136;2023-11-21T02:25:29;8.43;;;7.30;;
12567;SDS011;6349;50.904;6.136;2023-11-21T02:27:31;8.60;;;7.50;;
12567;SDS011;6349;50.904;6.136;2023-11-21T02:29:32;8.03;;;7.27;;
12567;SDS011;6349;50.904;6.136;2023-11-21T02:31:33;8.40;;;7.50;;
12567;SDS011;6349;50.904;6.136;2023-11-21T02:33:34;8.47;;;7.50;;
12567;SDS011;6349;50.904;6.136;2023-11-21T02:35:34;9.13;;;7.97;;
12567;SDS011;6349;50.904;6.136;2023-11-21T02:37:35;8.80;;;7.90;;
12567;SDS011;6349;50.904;6.136;2023-11-21T02:39:35;10.50;;;8.00;;
12567;SDS011;6349;50.904;6.136;2023-11-21T02:41:39;11.53;;;8.33;;
12567;SDS011;6349;50.904;6.136;2023-11-21T02:43:39;10.63;;;8.47;;
12567;SDS011;6349;50.904;6.136;2023-11-21T02:45:40;10.23;;;8.57;;
12567;SDS011;6349;50.904;6.136;2023-11-21T02:47:42;10.00;;;8.90;;
12567;SDS011;6349;50.904;6.136;2023-11-21T02:49:43;10.23;;;9.00;;
12567;SDS011;6349;50.904;6.136;2023-11-21T02:51:43;10.70;;;8.63;;
12567;SDS011;6349;50.904;6.136;2023-11-21T02:53:44;12.00;;;8.97;;
12567;SDS011;6349;50.904;6.136;2023-11-21T02:55:46;10.80;;;9.10;;
12567;SDS011;6349;50.904;6.136;2023-11-21T02:57:47;10.50;;;9.27;;
12567;SDS011;6349;50.904;6.136;2023-11-21T02:59:48;10.27;;;8.80;;
12567;SDS011;6349;50.904;6.136;2023-11-21T03:01:48;10.37;;;9.23;;
12567;SDS011;6349;50.904;6.136;2023-11-21T03:03:49;9.30;;;8.30;;
12567;SDS011;6349;50.904;6.136;2023-11-21T03:05:53;8.60;;;7.53;;
12567;SDS011;6349;50.904;6.136;2023-11-21T03:07:53;8.67;;;7.77;;
12567;SDS011;6349;50.904;6.136;2023-11-21T03:09:54;9.60;;;8.63;;
12567;SDS011;6349;50.904;6.136;2023-11-21T03:11:54;8.50;;;7.50;;
12567;SDS011;6349;50.904;6.136;2023-11-21T03:13:55;8.37;;;7.57;;
12567;SDS011;6349;50.904;6.136;2023-11-21T03:15:56;9.23;;;8.33;;
12567;SDS011;6349;50.904;6.136;2023-11-21T03:17:56;8.67;;;7.47;;
12567;SDS011;6349;50.904;6.136;2023-11-21T03:19:57;8.27;;;7.40;;
12567;SDS011;6349;50.904;6.136;2023-11-21T03:21:57;7.80;;;7.00;;
12567;SDS011;6349;50.904;6.136;2023-11-21T03:23:58;8.17;;;7.37;;
12567;SDS011;6349;50.904;6.136;2023-11-21T03:26:00;9.77;;;7.80;;
12567;SDS011;6349;50.904;6.136;2023-11-21T03:28:00;8.50;;;7.67;;
12567;SDS011;6349;50.904;6.136;2023-11-21T03:30:01;9.90;;;8.40;;
12567;SDS011;6349;50.904;6.136;2023-11-21T03:32:04;8.97;;;7.57;;
12567;SDS011;6349;50.904;6.136;2023-11-21T03:34:04;9.90;;;8.43;;
12567;SDS011;6349;50.904;6.136;2023-11-21T03:36:06;11.03;;;8.73;;
12567;SDS011;6349;50.904;6.136;2023-11-21T03:38:08;12.33;;;8.87;;
12567;SDS011;6349;50.904;6.136;2023-11-21T03:40:10;9.53;;;8.53;;
12567;SDS011;6349;50.904;6.136;2023-11-21T03:42:12;8.97;;;8.07;;
12567;SDS011;6349;50.904;6.136;2023-11-21T03:44:13;10.70;;;8.90;;
12567;SDS011;6349;50.904;6.136;2023-11-21T03:46:14;10.73;;;8.13;;
12567;SDS011;6349;50.904;6.136;2023-11-21T03:48:15;9.50;;;8.43;;
12567;SDS011;6349;50.904;6.136;2023-11-21T03:50:16;9.50;;;8.50;;
12567;SDS011;6349;50.904;6.136;2023-11-21T03:52:16;9.73;;;8.23;;
12567;SDS011;6349;50.904;6.136;2023-11-21T03:54:17;10.33;;;8.90;;
12567;SDS011;6349;50.904;6.136;2023-11-21T03:56:18;9.30;;;8.20;;
12567;SDS011;6349;50.904;6.136;2023-11-21T03:58:20;10.47;;;8.40;;
12567;SDS011;6349;50.904;6.136;2023-11-21T04:00:21;9.03;;;7.60;;
12567;SDS011;6349;50.904;6.136;2023-11-21T04:02:21;9.93;;;8.33;;
12567;SDS011;6349;50.904;6.136;2023-11-21T04:04:22;9.03;;;8.00;;
12567;SDS011;6349;50.904;6.136;2023-11-21T04:06:23;9.13;;;7.90;;
12567;SDS011;6349;50.904;6.136;2023-11-21T04:08:23;10.07;;;8.13;;
12567;SDS011;6349;50.904;6.136;2023-11-21T04:10:25;10.37;;;7.97;;
12567;SDS011;6349;50.904;6.136;2023-11-21T04:12:26;8.37;;;7.40;;
12567;SDS011;6349;50.904;6.136;2023-11-21T04:14:26;8.63;;;7.70;;
12567;SDS011;6349;50.904;6.136;2023-11-21T04:16:27;8.40;;;7.37;;
12567;SDS011;6349;50.904;6.136;2023-11-21T04:18:27;8.57;;;7.13;;
12567;SDS011;6349;50.904;6.136;2023-11-21T04:20:28;8.80;;;7.77;;
12567;SDS011;6349;50.904;6.136;2023-11-21T04:22:28;8.23;;;7.20;;
12567;SDS011;6349;50.904;6.136;2023-11-21T04:24:29;7.87;;;7.07;;
12567;SDS011;6349;50.904;6.136;2023-11-21T04:26:30;9.10;;;7.20;;
12567;SDS011;6349;50.904;6.136;2023-11-21T04:28:30;8.67;;;7.33;;
12567;SDS011;6349;50.904;6.136;2023-11-21T04:30:31;8.77;;;7.40;;
12567;SDS011;6349;50.904;6.136;2023-11-21T04:32:33;7.80;;;6.93;;
12567;SDS011;6349;50.904;6.136;2023-11-21T04:34:33;8.17;;;7.17;;
12567;SDS011;6349;50.904;6.136;2023-11-21T04:36:34;10.60;;;8.13;;
12567;SDS011;6349;50.904;6.136;2023-11-21T04:38:35;8.13;;;7.00;;
12567;SDS011;6349;50.904;6.136;2023-11-21T04:40:35;8.73;;;6.90;;
12567;SDS011;6349;50.904;6.136;2023-11-21T04:42:36;9.77;;;8.10;;
12567;SDS011;6349;50.904;6.136;2023-11-21T04:44:36;10.23;;;7.83;;
12567;SDS011;6349;50.904;6.136;2023-11-21T04:46:37;8.63;;;7.33;;
12567;SDS011;6349;50.904;6.136;2023-11-21T04:48:38;8.70;;;7.47;;
12567;SDS011;6349;50.904;6.136;2023-11-21T04:50:38;9.20;;;7.33;;
12567;SDS011;6349;50.904;6.136;2023-11-21T04:52:39;10.60;;;8.20;;
12567;SDS011;6349;50.904;6.136;2023-11-21T04:54:39;8.33;;;7.30;;
12567;SDS011;6349;50.904;6.136;2023-11-21T04:56:40;10.20;;;7.60;;
12567;SDS011;6349;50.904;6.136;2023-11-21T04:58:42;10.03;;;8.10;;
12567;SDS011;6349;50.904;6.136;2023-11-21T05:00:42;8.83;;;7.40;;
12567;SDS011;6349;50.904;6.136;2023-11-21T05:02:43;8.53;;;7.57;;
12567;SDS011;6349;50.904;6.136;2023-11-21T05:04:44;8.40;;;7.40;;
12567;SDS011;6349;50.904;6.136;2023-11-21T05:06:45;9.53;;;8.10;;
12567;SDS011;6349;50.904;6.136;2023-11-21T05:08:46;9.87;;;7.73;;
12567;SDS011;6349;50.904;6.136;2023-11-21T05:10:47;8.77;;;7.80;;
12567;SDS011;6349;50.904;6.136;2023-11-21T05:12:49;8.30;;;7.17;;
12567;SDS011;6349;50.904;6.136;2023-11-21T05:14:52;8.10;;;7.20;;
12567;SDS011;6349;50.904;6.136;2023-11-21T05:16:53;9.23;;;7.33;;
12567;SDS011;6349;50.904;6.136;2023-11-21T05:18:53;9.20;;;7.80;;
12567;SDS011;6349;50.904;6.136;2023-11-21T05:20:56;8.97;;;7.70;;
12567;SDS011;6349;50.904;6.136;2023-11-21T05:22:57;9.20;;;7.63;;
12567;SDS011;6349;50.904;6.136;2023-11-21T05:24:58;9.90;;;8.00;;
12567;SDS011;6349;50.904;6.136;2023-11-21T05:26:59;9.80;;;8.50;;
12567;SDS011;6349;50.904;6.136;2023-11-21T05:29:00;11.33;;;9.10;;
12567;SDS011;6349;50.904;6.136;2023-11-21T05:31:00;11.60;;;9.63;;
12567;SDS011;6349;50.904;6.136;2023-11-21T05:33:01;11.30;;;9.60;;
12567;SDS011;6349;50.904;6.136;2023-11-21T05:35:02;11.90;;;9.33;;
12567;SDS011;6349;50.904;6.136;2023-11-21T05:37:02;12.83;;;10.30;;
12567;SDS011;6349;50.904;6.136;2023-11-21T05:39:05;13.93;;;10.13;;
12567;SDS011;6349;50.904;6.136;2023-11-21T05:41:06;14.33;;;11.33;;
12567;SDS011;6349;50.904;6.136;2023-11-21T05:43:06;14.43;;;11.10;;
12567;SDS011;6349;50.904;6.136;2023-11-21T05:45:07;15.50;;;11.13;;
12567;SDS011;6349;50.904;6.136;2023-11-21T05:47:11;16.47;;;11.87;;
12567;SDS011;6349;50.904;6.136;2023-11-21T05:49:13;14.43;;;11.30;;
12567;SDS011;6349;50.904;6.136;2023-11-21T05:51:14;17.20;;;11.43;;
12567;SDS011;6349;50.904;6.136;2023-11-21T05:53:14;19.23;;;12.03;;
12567;SDS011;6349;50.904;6.136;2023-11-21T05:55:15;14.97;;;11.53;;
12567;SDS011;6349;50.904;6.136;2023-11-21T05:57:16;17.53;;;12.10;;
12567;SDS011;6349;50.904;6.136;2023-11-21T05:59:17;16.47;;;12.00;;
12567;SDS011;6349;50.904;6.136;2023-11-21T06:01:17;15.63;;;11.77;;
12567;SDS011;6349;50.904;6.136;2023-11-21T06:03:18;16.67;;;12.43;;
12567;SDS011;6349;50.904;6.136;2023-11-21T06:05:19;14.23;;;11.77;;
12567;SDS011;6349;50.904;6.136;2023-11-21T06:07:23;15.57;;;12.10;;
12567;SDS011;6349;50.904;6.136;2023-11-21T06:09:23;15.77;;;11.93;;
12567;SDS011;6349;50.904;6.136;2023-11-21T06:11:25;15.53;;;11.60;;
12567;SDS011;6349;50.904;6.136;2023-11-21T06:13:25;16.90;;;12.03;;
12567;SDS011;6349;50.904;6.136;2023-11-21T06:15:26;15.27;;;11.97;;
12567;SDS011;6349;50.904;6.136;2023-11-21T06:17:27;16.57;;;12.57;;
12567;SDS011;6349;50.904;6.136;2023-11-21T06:19:28;17.10;;;12.27;;
12567;SDS011;6349;50.904;6.136;2023-11-21T06:21:29;16.43;;;12.57;;
12567;SDS011;6349;50.904;6.136;2023-11-21T06:23:30;18.77;;;12.63;;
12567;SDS011;6349;50.904;6.136;2023-11-21T06:25:31;16.90;;;13.03;;
12567;SDS011;6349;50.904;6.136;2023-11-21T06:27:36;16.57;;;11.83;;
12567;SDS011;6349;50.904;6.136;2023-11-21T06:29:39;18.10;;;12.80;;
12567;SDS011;6349;50.904;6.136;2023-11-21T06:31:39;17.20;;;12.83;;
12567;SDS011;6349;50.904;6.136;2023-11-21T06:33:40;16.90;;;12.43;;
12567;SDS011;6349;50.904;6.136;2023-11-21T06:35:41;17.93;;;12.90;;
12567;SDS011;6349;50.904;6.136;2023-11-21T06:37:42;15.37;;;12.23;;
12567;SDS011;6349;50.904;6.136;2023-11-21T06:39:47;17.23;;;12.57;;
12567;SDS011;6349;50.904;6.136;2023-11-21T06:41:50;16.53;;;11.83;;
12567;SDS011;6349;50.904;6.136;2023-11-21T06:43:51;21.17;;;13.43;;
12567;SDS011;6349;50.904;6.136;2023-11-21T06:45:53;19.43;;;13.90;;
12567;SDS011;6349;50.904;6.136;2023-11-21T06:47:54;20.43;;;14.47;;
12567;SDS011;6349;50.904;6.136;2023-11-21T06:49:55;21.30;;;14.13;;
12567;SDS011;6349;50.904;6.136;2023-11-21T06:51:55;21.23;;;14.03;;
12567;SDS011;6349;50.904;6.136;2023-11-21T06:53:56;20.87;;;14.63;;
12567;SDS011;6349;50.904;6.136;2023-11-21T06:55:56;19.30;;;13.43;;
12567;SDS011;6349;50.904;6.136;2023-11-21T06:57:57;20.90;;;14.63;;
12567;SDS011;6349;50.904;6.136;2023-11-21T06:59:58;21.60;;;13.77;;
12567;SDS011;6349;50.904;6.136;2023-11-21T07:01:58;21.47;;;14.67;;
12567;SDS011;6349;50.904;6.136;2023-11-21T07:03:59;22.90;;;14.87;;
12567;SDS011;6349;50.904;6.136;2023-11-21T07:06:00;23.03;;;15.40;;
12567;SDS011;6349;50.904;6.136;2023-11-21T07:08:00;25.27;;;14.63;;
12567;SDS011;6349;50.904;6.136;2023-11-21T07:10:04;23.30;;;15.13;;
12567;SDS011;6349;50.904;6.136;2023-11-21T07:12:05;21.67;;;14.60;;
12567;SDS011;6349;50.904;6.136;2023-11-21T07:14:07;25.83;;;15.33;;
12567;SDS011;6349;50.904;6.136;2023-11-21T07:16:08;23.03;;;15.23;;
12567;SDS011;6349;50.904;6.136;2023-11-21T07:18:10;24.03;;;14.40;;
12567;SDS011;6349;50.904;6.136;2023-11-21T07:20:11;26.30;;;15.63;;
12567;SDS011;6349;50.904;6.136;2023-11-21T07:22:12;24.03;;;14.63;;
12567;SDS011;6349;50.904;6.136;2023-11-21T07:24:14;24.27;;;14.60;;
12567;SDS011;6349;50.904;6.136;2023-11-21T07:26:14;25.87;;;15.30;;
12567;SDS011;6349;50.904;6.136;2023-11-21T07:28:15;28.13;;;15.37;;
12567;SDS011;6349;50.904;6.136;2023-11-21T07:30:15;26.67;;;14.77;;
12567;SDS011;6349;50.904;6.136;2023-11-21T07:32:16;26.70;;;15.30;;
12567;SDS011;6349;50.904;6.136;2023-11-21T07:34:16;24.67;;;14.23;;
12567;SDS011;6349;50.904;6.136;2023-11-21T07:36:17;28.83;;;15.17;;
12567;SDS011;6349;50.904;6.136;2023-11-21T07:38:23;26.13;;;15.03;;
12567;SDS011;6349;50.904;6.136;2023-11-21T07:40:24;24.87;;;13.87;;
12567;SDS011;6349;50.904;6.136;2023-11-21T07:42:24;25.07;;;14.10;;
12567;SDS011;6349;50.904;6.136;2023-11-21T07:44:26;23.17;;;13.97;;
12567;SDS011;6349;50.904;6.136;2023-11-21T07:46:27;26.90;;;14.70;;
12567;SDS011;6349;50.904;6.136;2023-11-21T07:48:34;22.37;;;12.83;;
12567;SDS011;6349;50.904;6.136;2023-11-21T07:50:34;24.43;;;12.60;;
12567;SDS011;6349;50.904;6.136;2023-11-21T07:52:35;23.97;;;12.87;;
12567;SDS011;6349;50.904;6.136;2023-11-21T07:54:35;22.00;;;13.17;;
12567;SDS011;6349;50.904;6.136;2023-11-21T07:56:36;21.40;;;12.90;;
12567;SDS011;6349;50.904;6.136;2023-11-21T07:58:37;25.97;;;13.37;;
12567;SDS011;6349;50.904;6.136;2023-11-21T08:00:38;22.63;;;12.90;;
12567;SDS011;6349;50.904;6.136;2023-11-21T08:02:39;21.47;;;12.33;;
12567;SDS011;6349;50.904;6.136;2023-11-21T08:04:42;22.20;;;12.93;;
12567;SDS011;6349;50.904;6.136;2023-11-21T08:06:42;24.87;;;13.00;;
12567;SDS011;6349;50.904;6.136;2023-11-21T08:08:43;27.83;;;14.23;;
12567;SDS011;6349;50.904;6.136;2023-11-21T08:10:44;26.60;;;13.83;;
12567;SDS011;6349;50.904;6.136;2023-11-21T08:12:48;24.90;;;13.90;;
12567;SDS011;6349;50.904;6.136;2023-11-21T08:14:50;27.93;;;14.80;;
12567;SDS011;6349;50.904;6.136;2023-11-21T08:16:51;27.27;;;14.83;;
12567;SDS011;6349;50.904;6.136;2023-11-21T08:18:52;26.33;;;13.93;;
12567;SDS011;6349;50.904;6.136;2023-11-21T08:20:54;27.17;;;14.00;;
12567;SDS011;6349;50.904;6.136;2023-11-21T08:22:55;28.23;;;13.57;;
12567;SDS011;6349;50.904;6.136;2023-11-21T08:24:57;25.83;;;12.93;;
12567;SDS011;6349;50.904;6.136;2023-11-21T08:26:58;26.60;;;14.17;;
12567;SDS011;6349;50.904;6.136;2023-11-21T08:28:58;26.37;;;14.33;;
12567;SDS011;6349;50.904;6.136;2023-11-21T08:31:00;22.00;;;12.67;;
12567;SDS011;6349;50.904;6.136;2023-11-21T08:33:01;26.63;;;14.57;;
12567;SDS011;6349;50.904;6.136;2023-11-21T08:35:03;22.93;;;14.07;;
12567;SDS011;6349;50.904;6.136;2023-11-21T08:37:05;24.37;;;13.37;;
12567;SDS011;6349;50.904;6.136;2023-11-21T08:39:06;24.93;;;14.33;;
12567;SDS011;6349;50.904;6.136;2023-11-21T08:41:06;24.27;;;13.87;;
12567;SDS011;6349;50.904;6.136;2023-11-21T08:43:07;27.37;;;15.03;;
12567;SDS011;6349;50.904;6.136;2023-11-21T08:45:08;23.73;;;14.30;;
12567;SDS011;6349;50.904;6.136;2023-11-21T08:47:09;24.50;;;14.23;;
12567;SDS011;6349;50.904;6.136;2023-11-21T08:49:10;28.73;;;14.77;;
12567;SDS011;6349;50.904;6.136;2023-11-21T08:51:11;26.80;;;14.43;;
12567;SDS011;6349;50.904;6.136;2023-11-21T08:53:12;23.93;;;13.90;;
12567;SDS011;6349;50.904;6.136;2023-11-21T08:55:12;25.80;;;15.00;;
12567;SDS011;6349;50.904;6.136;2023-11-21T08:57:13;30.50;;;14.20;;
12567;SDS011;6349;50.904;6.136;2023-11-21T08:59:14;22.93;;;13.23;;
12567;SDS011;6349;50.904;6.136;2023-11-21T09:01:15;23.57;;;13.60;;
12567;SDS011;6349;50.904;6.136;2023-11-21T09:03:15;26.10;;;13.93;;
12567;SDS011;6349;50.904;6.136;2023-11-21T09:05:16;24.83;;;12.67;;
12567;SDS011;6349;50.904;6.136;2023-11-21T09:07:17;24.07;;;13.63;;
12567;SDS011;6349;50.904;6.136;2023-11-21T09:09:20;22.33;;;12.53;;
12567;SDS011;6349;50.904;6.136;2023-11-21T09:11:21;26.83;;;13.50;;
12567;SDS011;6349;50.904;6.136;2023-11-21T09:13:21;24.70;;;13.70;;
12567;SDS011;6349;50.904;6.136;2023-11-21T09:15:22;22.80;;;12.70;;
12567;SDS011;6349;50.904;6.136;2023-11-21T09:17:22;21.60;;;12.87;;
12567;SDS011;6349;50.904;6.136;2023-11-21T09:19:24;25.40;;;13.43;;
12567;SDS011;6349;50.904;6.136;2023-11-21T09:21:25;22.33;;;12.97;;
12567;SDS011;6349;50.904;6.136;2023-11-21T09:23:25;22.00;;;13.17;;
12567;SDS011;6349;50.904;6.136;2023-11-21T09:25:26;22.10;;;12.70;;
12567;SDS011;6349;50.904;6.136;2023-11-21T09:27:28;22.80;;;13.00;;
12567;SDS011;6349;50.904;6.136;2023-11-21T09:29:29;22.97;;;12.43;;
12567;SDS011;6349;50.904;6.136;2023-11-21T09:31:30;21.27;;;12.53;;
12567;SDS011;6349;50.904;6.136;2023-11-21T09:33:31;20.13;;;12.57;;
12567;SDS011;6349;50.904;6.136;2023-11-21T09:35:31;21.70;;;13.00;;
12567;SDS011;6349;50.904;6.136;2023-11-21T09:37:32;23.43;;;13.57;;
12567;SDS011;6349;50.904;6.136;2023-11-21T09:39:33;22.00;;;13.07;;
12567;SDS011;6349;50.904;6.136;2023-11-21T09:41:43;21.57;;;12.93;;
12567;SDS011;6349;50.904;6.136;2023-11-21T09:43:46;22.13;;;13.80;;
12567;SDS011;6349;50.904;6.136;2023-11-21T09:45:53;24.63;;;13.80;;
12567;SDS011;6349;50.904;6.136;2023-11-21T09:47:59;24.70;;;13.57;;
12567;SDS011;6349;50.904;6.136;2023-11-21T09:50:01;25.43;;;13.53;;
12567;SDS011;6349;50.904;6.136;2023-11-21T09:52:02;21.43;;;12.93;;
12567;SDS011;6349;50.904;6.136;2023-11-21T09:54:05;25.27;;;13.10;;
12567;SDS011;6349;50.904;6.136;2023-11-21T09:56:09;21.73;;;12.93;;
12567;SDS011;6349;50.904;6.136;2023-11-21T09:58:10;21.87;;;12.73;;
12567;SDS011;6349;50.904;6.136;2023-11-21T10:00:14;22.00;;;12.60;;
12567;SDS011;6349;50.904;6.136;2023-11-21T10:02:17;20.90;;;11.97;;
12567;SDS011;6349;50.904;6.136;2023-11-21T10:04:20;21.07;;;12.47;;
12567;SDS011;6349;50.904;6.136;2023-11-21T10:06:21;19.17;;;11.60;;
12567;SDS011;6349;50.904;6.136;2023-11-21T10:08:23;20.83;;;11.53;;
12567;SDS011;6349;50.904;6.136;2023-11-21T10:10:28;19.60;;;11.73;;
12567;SDS011;6349;50.904;6.136;2023-11-21T10:12:32;17.93;;;11.30;;
12567;SDS011;6349;50.904;6.136;2023-11-21T10:14:33;19.97;;;11.77;;
12567;SDS011;6349;50.904;6.136;2023-11-21T10:16:35;20.17;;;11.83;;
12567;SDS011;6349;50.904;6.136;2023-11-21T10:18:37;18.30;;;10.63;;
12567;SDS011;6349;50.904;6.136;2023-11-21T10:20:40;18.27;;;11.70;;
12567;SDS011;6349;50.904;6.136;2023-11-21T10:22:42;18.53;;;11.43;;
12567;SDS011;6349;50.904;6.136;2023-11-21T10:24:43;17.87;;;11.70;;
12567;SDS011;6349;50.904;6.136;2023-11-21T10:26:43;16.67;;;10.80;;
12567;SDS011;6349;50.904;6.136;2023-11-21T10:28:54;18.33;;;11.13;;
12567;SDS011;6349;50.904;6.136;2023-11-21T10:30:57;16.83;;;10.13;;
12567;SDS011;6349;50.904;6.136;2023-11-21T10:32:59;17.87;;;11.40;;
12567;SDS011;6349;50.904;6.136;2023-11-21T10:35:02;20.87;;;11.60;;
12567;SDS011;6349;50.904;6.136;2023-11-21T10:37:12;17.67;;;11.97;;
12567;SDS011;6349;50.904;6.136;2023-11-21T10:39:16;18.83;;;11.37;;
12567;SDS011;6349;50.904;6.136;2023-11-21T10:41:19;18.80;;;11.77;;
12567;SDS011;6349;50.904;6.136;2023-11-21T10:43:20;18.50;;;11.17;;
12567;SDS011;6349;50.904;6.136;2023-11-21T10:45:25;17.90;;;11.43;;
12567;SDS011;6349;50.904;6.136;2023-11-21T10:47:29;19.10;;;12.23;;
12567;SDS011;6349;50.904;6.136;2023-11-21T10:49:31;17.53;;;11.53;;
12567;SDS011;6349;50.904;6.136;2023-11-21T10:51:32;17.10;;;10.90;;
12567;SDS011;6349;50.904;6.136;2023-11-21T10:53:33;18.27;;;11.17;;
12567;SDS011;6349;50.904;6.136;2023-11-21T10:55:33;17.90;;;11.47;;
12567;SDS011;6349;50.904;6.136;2023-11-21T10:57:34;17.53;;;10.77;;
12567;SDS011;6349;50.904;6.136;2023-11-21T10:59:35;17.40;;;11.60;;
12567;SDS011;6349;50.904;6.136;2023-11-21T11:01:36;18.50;;;12.03;;
12567;SDS011;6349;50.904;6.136;2023-11-21T11:03:37;18.50;;;11.27;;
12567;SDS011;6349;50.904;6.136;2023-11-21T11:05:38;18.10;;;11.20;;
12567;SDS011;6349;50.904;6.136;2023-11-21T11:07:40;19.53;;;11.67;;
12567;SDS011;6349;50.904;6.136;2023-11-21T11:09:44;16.63;;;11.50;;
12567;SDS011;6349;50.904;6.136;2023-11-21T11:11:45;18.40;;;11.70;;
12567;SDS011;6349;50.904;6.136;2023-11-21T11:13:46;17.70;;;10.90;;
12567;SDS011;6349;50.904;6.136;2023-11-21T11:15:47;16.97;;;11.13;;
12567;SDS011;6349;50.904;6.136;2023-11-21T11:17:48;18.03;;;10.70;;
12567;SDS011;6349;50.904;6.136;2023-11-21T11:19:49;23.17;;;11.53;;
12567;SDS011;6349;50.904;6.136;2023-11-21T11:29:10;18.50;;;10.80;;
12567;SDS011;6349;50.904;6.136;2023-11-21T11:31:33;15.83;;;10.43;;
12567;SDS011;6349;50.904;6.136;2023-11-21T11:33:50;18.40;;;11.13;;
12567;SDS011;6349;50.904;6.136;2023-11-21T11:38:32;17.13;;;10.17;;
12567;SDS011;6349;50.904;6.136;2023-11-21T11:40:41;17.57;;;10.80;;
12567;SDS011;6349;50.904;6.136;2023-11-21T11:42:55;16.47;;;10.03;;
12567;SDS011;6349;50.904;6.136;2023-11-21T11:44:58;17.73;;;10.07;;
12567;SDS011;6349;50.904;6.136;2023-11-21T11:46:58;18.77;;;10.67;;
12567;SDS011;6349;50.904;6.136;2023-11-21T11:49:03;15.47;;;10.07;;
12567;SDS011;6349;50.904;6.136;2023-11-21T11:51:04;17.30;;;10.37;;
12567;SDS011;6349;50.904;6.136;2023-11-21T11:53:12;15.73;;;9.90;;
12567;SDS011;6349;50.904;6.136;2023-11-21T11:55:13;16.40;;;10.33;;
12567;SDS011;6349;50.904;6.136;2023-11-21T11:57:18;19.13;;;10.90;;
12567;SDS011;6349;50.904;6.136;2023-11-21T11:59:19;16.60;;;10.50;;
12567;SDS011;6349;50.904;6.136;2023-11-21T12:01:20;18.57;;;10.60;;
12567;SDS011;6349;50.904;6.136;2023-11-21T12:03:21;17.93;;;11.37;;
12567;SDS011;6349;50.904;6.136;2023-11-21T12:05:22;18.60;;;11.07;;
12567;SDS011;6349;50.904;6.136;2023-11-21T12:07:23;18.73;;;11.20;;
12567;SDS011;6349;50.904;6.136;2023-11-21T12:09:24;21.37;;;11.57;;
12567;SDS011;6349;50.904;6.136;2023-11-21T12:11:30;19.80;;;11.87;;
12567;SDS011;6349;50.904;6.136;2023-11-21T12:13:31;19.63;;;11.67;;
12567;SDS011;6349;50.904;6.136;2023-11-21T12:15:32;18.07;;;11.30;;
12567;SDS011;6349;50.904;6.136;2023-11-21T12:17:33;14.23;;;9.83;;
12567;SDS011;6349;50.904;6.136;2023-11-21T12:19:34;18.27;;;11.27;;